Time;durP1;ratioP1;P1;durP2;ratioP2;P2;SDS_P1;SDS_P2;PMS_P1;PMS_P2;Temp;Humidity;BMP_temperature;BMP_pressure;BME280_temperature;BME280_humidity;BME280_pressure;Samples;Min_cycle;Max_cycle;Signal;HPM_P1;HPM_P2
2022/01/01 00:00:54;;;;;;;167.8;107.8;;;;;;;;;;;;;
2022/01/01 00:03:20;;;;;;;163.4;105.2;;;;;;;;;;;;;
2022/01/01 00:05:47;;;;;;;153.5;100.8;;;;;;;;;;;;;
2022/01/01 00:08:12;;;;;;;139.2;90.8;;;;;;;;;;;;;
2022/01/01 00:10:37;;;;;;;134.6;90.4;;;;;;;;;;;;;
2022/01/01 00:13:03;;;;;;;94.7;63;;;;;;;;;;;;;
2022/01/01 00:15:30;;;;;;;87.9;58.9;;;;;;;;;;;;;
2022/01/01 00:17:57;;;;;;;88.8;57.4;;;;;;;;;;;;;
2022/01/01 00:20:22;;;;;;;83.9;53.8;;;;;;;;;;;;;
2022/01/01 00:22:48;;;;;;;111;70.8;;;;;;;;;;;;;
2022/01/01 00:25:14;;;;;;;88.9;55.8;;;;;;;;;;;;;
2022/01/01 00:27:38;;;;;;;72.9;46.1;;;;;;;;;;;;;
2022/01/01 00:30:06;;;;;;;66.4;43;;;;;;;;;;;;;
2022/01/01 00:32:29;;;;;;;50.3;32.5;;;;;;;;;;;;;
2022/01/01 00:34:55;;;;;;;46.5;29.8;;;;;;;;;;;;;
2022/01/01 00:37:20;;;;;;;45.9;29.2;;;;;;;;;;;;;
2022/01/01 00:39:46;;;;;;;39.2;26.9;;;;;;;;;;;;;
2022/01/01 00:42:11;;;;;;;45;28.7;;;;;;;;;;;;;
2022/01/01 00:44:37;;;;;;;43.5;27.7;;;;;;;;;;;;;
2022/01/01 00:47:02;;;;;;;46.1;30.3;;;;;;;;;;;;;
2022/01/01 00:49:27;;;;;;;43.5;28.6;;;;;;;;;;;;;
2022/01/01 00:51:52;;;;;;;50.7;32;;;;;;;;;;;;;
2022/01/01 00:54:17;;;;;;;52.4;32.8;;;;;;;;;;;;;
2022/01/01 00:56:43;;;;;;;48.7;31.6;;;;;;;;;;;;;
2022/01/01 00:59:08;;;;;;;59;36.2;;;;;;;;;;;;;
2022/01/01 01:01:34;;;;;;;57.9;34.9;;;;;;;;;;;;;
2022/01/01 01:03:59;;;;;;;43.3;28.9;;;;;;;;;;;;;
2022/01/01 01:06:24;;;;;;;38.1;24.2;;;;;;;;;;;;;
2022/01/01 01:08:51;;;;;;;36.9;23.3;;;;;;;;;;;;;
2022/01/01 01:11:15;;;;;;;39.9;24.7;;;;;;;;;;;;;
2022/01/01 01:13:44;;;;;;;36.2;22.8;;;;;;;;;;;;;
2022/01/01 01:16:05;;;;;;;30.1;18.2;;;;;;;;;;;;;
2022/01/01 01:18:31;;;;;;;25.7;17.2;;;;;;;;;;;;;
2022/01/01 01:20:57;;;;;;;31.8;19.5;;;;;;;;;;;;;
2022/01/01 01:23:23;;;;;;;22.7;14.9;;;;;;;;;;;;;
2022/01/01 01:25:48;;;;;;;23;15.1;;;;;;;;;;;;;
2022/01/01 01:28:15;;;;;;;26.5;16.2;;;;;;;;;;;;;
2022/01/01 01:30:58;;;;;;;31;19.9;;;;;;;;;;;;;
2022/01/01 01:33:05;;;;;;;32.6;20.3;;;;;;;;;;;;;
2022/01/01 01:35:30;;;;;;;30;18;;;;;;;;;;;;;
2022/01/01 01:37:55;;;;;;;24.2;16.6;;;;;;;;;;;;;
2022/01/01 01:40:20;;;;;;;25.2;15.9;;;;;;;;;;;;;
2022/01/01 01:42:46;;;;;;;27.1;16.8;;;;;;;;;;;;;
2022/01/01 01:45:15;;;;;;;29.8;18.4;;;;;;;;;;;;;
2022/01/01 01:47:37;;;;;;;27.5;18.2;;;;;;;;;;;;;
2022/01/01 01:50:01;;;;;;;28;18;;;;;;;;;;;;;
2022/01/01 01:52:28;;;;;;;33.6;21;;;;;;;;;;;;;
2022/01/01 01:54:51;;;;;;;31.8;20.1;;;;;;;;;;;;;
2022/01/01 01:57:17;;;;;;;29.6;18.6;;;;;;;;;;;;;
2022/01/01 01:59:42;;;;;;;29.2;18.8;;;;;;;;;;;;;
2022/01/01 02:02:07;;;;;;;27.9;18.3;;;;;;;;;;;;;
2022/01/01 02:04:32;;;;;;;19.4;12.5;;;;;;;;;;;;;
2022/01/01 02:06:58;;;;;;;19.9;12.8;;;;;;;;;;;;;
2022/01/01 02:09:23;;;;;;;21.2;13.1;;;;;;;;;;;;;
2022/01/01 02:11:48;;;;;;;20.7;13;;;;;;;;;;;;;
2022/01/01 02:14:23;;;;;;;19.2;12.9;;;;;;;;;;;;;
2022/01/01 02:17:07;;;;;;;17.2;11.5;;;;;;;;;;;;;
2022/01/01 02:19:04;;;;;;;20.3;11.8;;;;;;;;;;;;;
2022/01/01 02:21:31;;;;;;;19;13;;;;;;;;;;;;;
2022/01/01 02:23:59;;;;;;;21.5;13.7;;;;;;;;;;;;;
2022/01/01 02:26:21;;;;;;;20.9;13.1;;;;;;;;;;;;;
2022/01/01 02:28:46;;;;;;;20.4;12.6;;;;;;;;;;;;;
2022/01/01 02:31:11;;;;;;;20.2;14.5;;;;;;;;;;;;;
2022/01/01 02:33:36;;;;;;;22.8;15;;;;;;;;;;;;;
2022/01/01 02:36:02;;;;;;;27.9;16.3;;;;;;;;;;;;;
2022/01/01 02:38:27;;;;;;;27.6;16.6;;;;;;;;;;;;;
2022/01/01 02:40:53;;;;;;;27.6;17.9;;;;;;;;;;;;;
2022/01/01 02:43:19;;;;;;;27.1;18.2;;;;;;;;;;;;;
2022/01/01 02:45:43;;;;;;;28.7;18.7;;;;;;;;;;;;;
2022/01/01 02:48:08;;;;;;;26.2;17.9;;;;;;;;;;;;;
2022/01/01 02:50:33;;;;;;;28.9;18;;;;;;;;;;;;;
2022/01/01 02:52:59;;;;;;;27.6;17.6;;;;;;;;;;;;;
2022/01/01 02:55:24;;;;;;;25.5;17.1;;;;;;;;;;;;;
2022/01/01 02:57:51;;;;;;;26;17.2;;;;;;;;;;;;;
2022/01/01 03:00:16;;;;;;;25.3;15.7;;;;;;;;;;;;;
2022/01/01 03:02:45;;;;;;;20.4;13.9;;;;;;;;;;;;;
2022/01/01 03:05:08;;;;;;;24.9;15.9;;;;;;;;;;;;;
2022/01/01 03:07:34;;;;;;;24.5;15.9;;;;;;;;;;;;;
2022/01/01 03:09:58;;;;;;;19.2;12.9;;;;;;;;;;;;;
2022/01/01 03:12:23;;;;;;;18.4;11.7;;;;;;;;;;;;;
2022/01/01 03:14:49;;;;;;;17;11.6;;;;;;;;;;;;;
2022/01/01 03:17:14;;;;;;;20.8;13.7;;;;;;;;;;;;;
2022/01/01 03:19:39;;;;;;;18.8;12.6;;;;;;;;;;;;;
2022/01/01 03:22:04;;;;;;;15.9;11.1;;;;;;;;;;;;;
2022/01/01 03:24:30;;;;;;;15.4;11.3;;;;;;;;;;;;;
2022/01/01 03:26:55;;;;;;;16.6;12.6;;;;;;;;;;;;;
2022/01/01 03:29:21;;;;;;;22.8;13.9;;;;;;;;;;;;;
2022/01/01 03:31:46;;;;;;;17.8;11.7;;;;;;;;;;;;;
2022/01/01 03:34:11;;;;;;;18.1;11.8;;;;;;;;;;;;;
2022/01/01 03:36:36;;;;;;;18.4;12.2;;;;;;;;;;;;;
2022/01/01 03:39:02;;;;;;;28.2;17.3;;;;;;;;;;;;;
2022/01/01 03:41:27;;;;;;;32.9;20.2;;;;;;;;;;;;;
2022/01/01 03:43:52;;;;;;;30.7;19.2;;;;;;;;;;;;;
2022/01/01 03:46:17;;;;;;;30.6;19.1;;;;;;;;;;;;;
2022/01/01 03:48:43;;;;;;;28.9;18.9;;;;;;;;;;;;;
2022/01/01 03:51:08;;;;;;;36.1;22.6;;;;;;;;;;;;;
2022/01/01 03:53:33;;;;;;;33.3;19.8;;;;;;;;;;;;;
2022/01/01 03:55:59;;;;;;;22.8;14.8;;;;;;;;;;;;;
2022/01/01 03:58:23;;;;;;;24.7;15.3;;;;;;;;;;;;;
2022/01/01 04:02:31;;;;;;;22.8;14.7;;;;;;;2.13;93.0918;948.5391;;;;
2022/01/01 04:04:56;;;;;;;19.7;13.4;;;;;;;1.96;93.80371;948.5084;;;;
2022/01/01 04:07:21;;;;;;;15;9.9;;;;;;;1.89;95.15625;948.5322;;;;
2022/01/01 04:09:46;;;;;;;16.7;9.8;;;;;;;2.01;95.06934;948.5292;;;;
2022/01/01 04:12:41;;;;;;;16.4;10.4;;;;;;;2.01;94.96875;948.5289;;;;
2022/01/01 04:15:11;;;;;;;14.5;8.9;;;;;;;2.01;95.0918;948.5022;;;;
2022/01/01 04:17:38;;;;;;;12.9;8.4;;;;;;;2.01;94.3418;948.5528;;;;
2022/01/01 04:20:03;;;;;;;12.9;8;;;;;;;2.09;94.2793;948.5704;;;;
2022/01/01 04:22:28;;;;;;;15.9;9.8;;;;;;;1.93;95.44238;948.6514;;;;
2022/01/01 04:24:56;;;;;;;14.9;9.4;;;;;;;1.95;95.37012;948.6143;;;;
2022/01/01 04:27:21;;;;;;;13;8.9;;;;;;;1.96;95.55176;948.6872;;;;
2022/01/01 04:29:46;;;;;;;16.7;10.4;;;;;;;2.02;95.10645;948.7001;;;;
2022/01/01 04:32:14;;;;;;;16.4;11.2;;;;;;;1.96;95.48242;948.7456;;;;
2022/01/01 04:34:37;;;;;;;19.2;11;;;;;;;1.88;96.01172;948.7402;;;;
2022/01/01 04:37:07;;;;;;;17.1;10.3;;;;;;;1.96;95.99707;948.8078;;;;
2022/01/01 04:39:28;;;;;;;17.6;10.6;;;;;;;2.02;95.30664;948.8962;;;;
2022/01/01 04:41:55;;;;;;;18.8;11;;;;;;;2.05;94.87793;948.8301;;;;
2022/01/01 04:44:20;;;;;;;23;13.4;;;;;;;1.89;95.55762;948.8979;;;;
2022/01/01 04:46:46;;;;;;;22.5;13.8;;;;;;;1.95;95.51367;948.9816;;;;
2022/01/01 04:49:11;;;;;;;25.8;15.6;;;;;;;1.97;94.91504;948.9969;;;;
2022/01/01 04:51:36;;;;;;;23;14.1;;;;;;;1.96;94.62012;948.8995;;;;
2022/01/01 04:54:07;;;;;;;22.5;14;;;;;;;2.01;94.2168;948.993;;;;
2022/01/01 04:56:30;;;;;;;22.9;13.8;;;;;;;1.93;94.6123;948.9747;;;;
2022/01/01 04:58:55;;;;;;;20.4;12.9;;;;;;;1.96;94.67676;948.9693;;;;
2022/01/01 05:01:22;;;;;;;20.2;12.7;;;;;;;1.94;94.21582;948.9567;;;;
2022/01/01 05:03:47;;;;;;;18;11.9;;;;;;;2.01;93.86035;949.0775;;;;
2022/01/01 05:06:13;;;;;;;16.9;11.4;;;;;;;2.03;93.73047;949.101;;;;
2022/01/01 05:08:38;;;;;;;20.3;11.9;;;;;;;2.04;93.44336;949.0862;;;;
2022/01/01 05:11:03;;;;;;;15.8;10.9;;;;;;;1.99;93.50977;949.1216;;;;
2022/01/01 05:13:30;;;;;;;17.2;10.5;;;;;;;2;93.5;949.1542;;;;
2022/01/01 05:16:06;;;;;;;16.2;10.8;;;;;;;1.83;94.29004;949.0931;;;;
2022/01/01 05:18:36;;;;;;;14.4;9.7;;;;;;;1.76;95.36133;949.1222;;;;
2022/01/01 05:20:59;;;;;;;14.9;10.1;;;;;;;1.81;95.27051;949.1556;;;;
2022/01/01 05:23:26;;;;;;;15.4;9.5;;;;;;;1.89;94.9873;949.0622;;;;
2022/01/01 05:25:51;;;;;;;15.6;9.5;;;;;;;1.96;94.51074;949.1041;;;;
2022/01/01 05:28:19;;;;;;;15;9.8;;;;;;;1.98;94.32227;949.0964;;;;
2022/01/01 05:30:44;;;;;;;14.3;9.5;;;;;;;1.87;94.72559;949.0892;;;;
2022/01/01 05:33:10;;;;;;;14;9.8;;;;;;;1.86;94.6543;949.0444;;;;
2022/01/01 05:35:35;;;;;;;15.5;9.2;;;;;;;1.74;95.07715;948.9338;;;;
2022/01/01 05:38:00;;;;;;;13.9;9.1;;;;;;;1.58;95.95801;949.0494;;;;
2022/01/01 05:40:25;;;;;;;15.8;8.7;;;;;;;1.51;96.60156;948.9751;;;;
2022/01/01 05:42:50;;;;;;;13.1;9;;;;;;;1.5;97.19141;949.0683;;;;
2022/01/01 05:45:16;;;;;;;12.2;7.9;;;;;;;1.64;96.70801;949.079;;;;
2022/01/01 05:47:41;;;;;;;11.7;7.9;;;;;;;1.67;96.84863;949.069;;;;
2022/01/01 05:50:06;;;;;;;11.9;7.7;;;;;;;1.57;96.6582;949.0714;;;;
2022/01/01 05:52:31;;;;;;;10.6;7;;;;;;;1.67;96.43457;949.0119;;;;
2022/01/01 05:54:58;;;;;;;11.5;7.6;;;;;;;1.7;95.93945;949.045;;;;
2022/01/01 05:57:23;;;;;;;10.8;7.3;;;;;;;1.6;96.38672;948.9828;;;;
2022/01/01 05:59:49;;;;;;;12.1;7.8;;;;;;;1.67;96.31152;949.0379;;;;
2022/01/01 06:02:14;;;;;;;13.3;8.5;;;;;;;1.75;95.66992;949.0393;;;;
2022/01/01 06:04:39;;;;;;;15.1;9.2;;;;;;;1.55;96.10645;949.0218;;;;
2022/01/01 06:07:05;;;;;;;14.3;8.4;;;;;;;1.67;95.83105;949.0203;;;;
2022/01/01 06:09:30;;;;;;;12.3;8.3;;;;;;;1.6;95.71582;949.0047;;;;
2022/01/01 06:11:57;;;;;;;11.1;7.6;;;;;;;1.48;96.28223;948.954;;;;
2022/01/01 06:14:22;;;;;;;12.8;8.6;;;;;;;1.4;96.62109;948.9338;;;;
2022/01/01 06:16:54;;;;;;;11.7;8.5;;;;;;;1.41;96.79102;948.951;;;;
2022/01/01 06:19:20;;;;;;;12;8.4;;;;;;;1.38;97.11816;948.9514;;;;
2022/01/01 06:21:46;;;;;;;11.2;7.4;;;;;;;1.55;96.41895;948.9533;;;;
2022/01/01 06:24:12;;;;;;;11.8;7.9;;;;;;;1.54;96.04785;948.9894;;;;
2022/01/01 06:26:37;;;;;;;12.7;8.1;;;;;;;1.55;95.75781;948.9153;;;;
2022/01/01 06:29:04;;;;;;;11.7;7.8;;;;;;;1.56;95.39453;948.9706;;;;
2022/01/01 06:31:28;;;;;;;10.9;7.2;;;;;;;1.54;95.55664;948.9612;;;;
2022/01/01 06:33:55;;;;;;;11.7;8.6;;;;;;;1.49;95.85938;948.978;;;;
2022/01/01 06:36:20;;;;;;;12.5;7.9;;;;;;;1.48;95.73242;948.9961;;;;
2022/01/01 06:38:45;;;;;;;11.5;7.9;;;;;;;1.6;95.17969;948.9185;;;;
2022/01/01 06:41:10;;;;;;;11.5;7.6;;;;;;;1.61;95.32617;949.0499;;;;
2022/01/01 06:43:37;;;;;;;11;7;;;;;;;1.67;94.9248;949.0652;;;;
2022/01/01 06:46:02;;;;;;;12.4;7.7;;;;;;;1.47;95.50684;949.0567;;;;
2022/01/01 06:48:27;;;;;;;10.2;7.2;;;;;;;1.62;95.58594;949.0342;;;;
2022/01/01 06:50:54;;;;;;;13.3;8.5;;;;;;;1.65;94.97656;949.108;;;;
2022/01/01 06:53:19;;;;;;;12.3;8.4;;;;;;;1.72;94.80273;949.0947;;;;
2022/01/01 06:55:44;;;;;;;13.8;9.3;;;;;;;1.73;94.48047;949.1113;;;;
2022/01/01 06:58:09;;;;;;;12.5;8.4;;;;;;;1.76;94.25195;949.076;;;;
2022/01/01 07:00:34;;;;;;;12;7.9;;;;;;;1.81;94.04199;948.9556;;;;
2022/01/01 07:03:03;;;;;;;10.4;7.7;;;;;;;1.85;93.76855;949.05;;;;
2022/01/01 07:05:29;;;;;;;11.9;8.5;;;;;;;1.77;93.79688;949.0251;;;;
2022/01/01 07:07:54;;;;;;;12.2;8.3;;;;;;;1.56;94.87793;949.0315;;;;
2022/01/01 07:10:19;;;;;;;13;8.6;;;;;;;1.61;95.38086;949.0072;;;;
2022/01/01 07:12:44;;;;;;;13.4;9.1;;;;;;;1.6;95.47949;949.0251;;;;
2022/01/01 07:15:12;;;;;;;12.3;8.3;;;;;;;1.62;95.42969;948.9702;;;;
2022/01/01 07:17:41;;;;;;;11.4;8;;;;;;;1.66;95.0127;949.0583;;;;
2022/01/01 07:20:10;;;;;;;11.5;7.5;;;;;;;1.79;95.12109;949.048;;;;
2022/01/01 07:22:35;;;;;;;9.4;6.5;;;;;;;1.85;94.79785;949.0447;;;;
2022/01/01 07:25:01;;;;;;;9.4;6.4;;;;;;;1.98;94.53711;949.0094;;;;
2022/01/01 07:27:27;;;;;;;10.3;7.3;;;;;;;2.04;93.50781;949.0906;;;;
2022/01/01 07:29:52;;;;;;;9.1;6.4;;;;;;;2.11;93.25586;949.1108;;;;
2022/01/01 07:32:17;;;;;;;11.3;7.3;;;;;;;2.13;92.95898;949.0611;;;;
2022/01/01 07:34:44;;;;;;;12.9;8.7;;;;;;;2.19;92.76953;949.0809;;;;
2022/01/01 07:37:09;;;;;;;11.6;8.1;;;;;;;2.2;92.24707;949.0555;;;;
2022/01/01 07:39:34;;;;;;;13.1;8.9;;;;;;;2.05;92.7959;949.1401;;;;
2022/01/01 07:41:59;;;;;;;11.1;8.5;;;;;;;2.22;92.06055;949.1339;;;;
2022/01/01 07:44:25;;;;;;;11.1;7.9;;;;;;;2.15;92.05566;949.0714;;;;
2022/01/01 07:46:52;;;;;;;12;7.7;;;;;;;2.23;92.12793;949.0685;;;;
2022/01/01 07:49:18;;;;;;;14.7;10;;;;;;;2.27;91.68945;949.0762;;;;
2022/01/01 07:51:43;;;;;;;16.3;10.8;;;;;;;2.34;91.12109;949.0731;;;;
2022/01/01 07:54:08;;;;;;;19.3;11.7;;;;;;;2.4;90.82227;949.0885;;;;
2022/01/01 07:56:33;;;;;;;19.5;11.9;;;;;;;2.38;90.53711;949.1135;;;;
2022/01/01 07:59:00;;;;;;;13.3;8.6;;;;;;;2.2;91.38477;949.0444;;;;
2022/01/01 08:01:24;;;;;;;12.4;8.4;;;;;;;2.14;91.95117;949.1013;;;;
2022/01/01 08:03:52;;;;;;;11.5;6.9;;;;;;;2.09;92.04395;949.079;;;;
2022/01/01 08:06:17;;;;;;;9.4;6.8;;;;;;;2.06;92.42871;949.0553;;;;
2022/01/01 08:08:42;;;;;;;9.6;5.9;;;;;;;2.11;92.54102;949.0458;;;;
2022/01/01 08:11:08;;;;;;;9.5;6.8;;;;;;;2.05;92.50293;949.0472;;;;
2022/01/01 08:13:35;;;;;;;10.7;7.9;;;;;;;2.3;92.88477;949.0308;;;;
2022/01/01 08:16:01;;;;;;;9.9;7.5;;;;;;;3.25;89.34082;948.9695;;;;
2022/01/01 08:18:26;;;;;;;31.1;16.8;;;;;;;3.83;84.40625;949.005;;;;
2022/01/01 08:20:51;;;;;;;10.9;7.9;;;;;;;4.99;79.70801;948.9969;;;;
2022/01/01 08:23:17;;;;;;;9.6;7.2;;;;;;;5.38;76.48926;949.0381;;;;
2022/01/01 08:25:42;;;;;;;9.6;7.1;;;;;;;5.6;75.98633;949.0058;;;;
2022/01/01 08:28:09;;;;;;;9.2;7.4;;;;;;;5.56;75.53809;948.8766;;;;
2022/01/01 08:30:33;;;;;;;7.8;6.5;;;;;;;6.45;72.66504;948.9141;;;;
2022/01/01 08:33:01;;;;;;;6.3;4.3;;;;;;;7.33;69.30078;948.9197;;;;
2022/01/01 08:35:23;;;;;;;21.1;11.7;;;;;;;6.98;69.31152;948.9155;;;;
2022/01/01 08:37:48;;;;;;;15.9;9.7;;;;;;;7.46;67.90527;948.8728;;;;
2022/01/01 08:40:14;;;;;;;13.2;9;;;;;;;7.75;67.64453;948.8348;;;;
2022/01/01 08:42:39;;;;;;;8;5.5;;;;;;;8;66.00391;948.9328;;;;
2022/01/01 08:45:06;;;;;;;6.1;4.7;;;;;;;7.71;66.60547;948.8315;;;;
2022/01/01 08:47:32;;;;;;;7.3;5.3;;;;;;;6.71;69.47363;948.8452;;;;
2022/01/01 08:49:57;;;;;;;7;4.6;;;;;;;5.74;74.2959;948.8433;;;;
2022/01/01 08:52:23;;;;;;;7.6;5.8;;;;;;;5.21;77.33691;948.8122;;;;
2022/01/01 08:54:48;;;;;;;7.2;4.8;;;;;;;4.84;79.27539;948.8667;;;;
2022/01/01 08:57:14;;;;;;;17.2;10.1;;;;;;;4.18;82.42676;948.8354;;;;
2022/01/01 08:59:39;;;;;;;22.4;12.1;;;;;;;4.13;83.18262;948.8;;;;
2022/01/01 09:02:04;;;;;;;22.2;12.3;;;;;;;4.09;84.28711;948.7696;;;;
2022/01/01 09:04:31;;;;;;;8.5;5.3;;;;;;;4.17;84.07813;948.7689;;;;
2022/01/01 09:06:57;;;;;;;12.8;9.5;;;;;;;4.18;85.36426;948.7167;;;;
2022/01/01 09:09:22;;;;;;;6.4;5.7;;;;;;;4.31;84.09375;948.7121;;;;
2022/01/01 09:11:47;;;;;;;8.1;5.9;;;;;;;4.38;84.61523;948.6866;;;;
2022/01/01 09:14:15;;;;;;;7.3;5.2;;;;;;;4.52;84.56445;948.6557;;;;
2022/01/01 09:16:40;;;;;;;6.6;5.2;;;;;;;4.56;83.76074;948.6965;;;;
2022/01/01 09:19:07;;;;;;;9.7;7;;;;;;;4.51;84.37012;948.5353;;;;
2022/01/01 09:21:32;;;;;;;9.4;7;;;;;;;4.49;84.07324;948.6558;;;;
2022/01/01 09:23:57;;;;;;;9.7;6.8;;;;;;;4.6;83.91602;948.6432;;;;
2022/01/01 09:26:43;;;;;;;6.3;4.5;;;;;;;4.48;83.65723;948.684;;;;
2022/01/01 09:29:04;;;;;;;8.7;6.6;;;;;;;4.53;83.61133;948.7142;;;;
2022/01/01 09:31:28;;;;;;;9.1;7.1;;;;;;;;;;;;;
2022/01/01 09:33:54;;;;;;;8;6.7;;;;;;;;;;;;;
2022/01/01 09:36:21;;;;;;;9;7;;;;;;;;;;;;;
2022/01/01 09:38:45;;;;;;;14.3;12.6;;;;;;;;;;;;;
2022/01/01 09:41:10;;;;;;;9.2;7.1;;;;;;;;;;;;;
2022/01/01 09:43:35;;;;;;;6.9;5.6;;;;;;;;;;;;;
2022/01/01 09:46:02;;;;;;;6.4;5.1;;;;;;;;;;;;;
2022/01/01 09:48:37;;;;;;;8.6;5.6;;;;;;;;;;;;;
2022/01/01 09:51:02;;;;;;;8.5;5.5;;;;;;;;;;;;;
2022/01/01 09:53:27;;;;;;;6.6;5.1;;;;;;;;;;;;;
2022/01/01 09:55:53;;;;;;;9.4;5.4;;;;;;;;;;;;;
2022/01/01 09:58:18;;;;;;;7.5;4.4;;;;;;;;;;;;;
2022/01/01 10:00:43;;;;;;;6.7;5.2;;;;;;;;;;;;;
2022/01/01 10:03:08;;;;;;;8.5;6.2;;;;;;;;;;;;;
2022/01/01 10:05:35;;;;;;;7.1;5.2;;;;;;;;;;;;;
2022/01/01 10:08:07;;;;;;;6;4;;;;;;;;;;;;;
2022/01/01 10:10:32;;;;;;;5.6;4.1;;;;;;;;;;;;;
2022/01/01 10:12:57;;;;;;;5.2;3.4;;;;;;;;;;;;;
2022/01/01 10:15:22;;;;;;;6.4;3.3;;;;;;;;;;;;;
2022/01/01 10:17:47;;;;;;;4.8;3.4;;;;;;;;;;;;;
2022/01/01 10:20:13;;;;;;;5.5;2.9;;;;;;;;;;;;;
2022/01/01 10:22:39;;;;;;;4.8;2.3;;;;;;;;;;;;;
2022/01/01 10:27:46;;;;;;;6.4;4.7;;;;;;;;;;;;;
2022/01/01 10:29:53;;;;;;;7.6;4.6;;;;;;;;;;;;;
2022/01/01 10:32:18;;;;;;;10.5;5;;;;;;;;;;;;;
2022/01/01 10:34:43;;;;;;;12.8;5.9;;;;;;;;;;;;;
2022/01/01 10:37:10;;;;;;;8.9;7.2;;;;;;;;;;;;;
2022/01/01 10:39:34;;;;;;;10.6;6.5;;;;;;;;;;;;;
2022/01/01 10:42:00;;;;;;;14.6;6.6;;;;;;;;;;;;;
2022/01/01 10:44:24;;;;;;;11.2;6;;;;;;;;;;;;;
2022/01/01 10:46:49;;;;;;;8.9;4.2;;;;;;;;;;;;;
2022/01/01 10:49:29;;;;;;;9.9;3.9;;;;;;;;;;;;;
2022/01/01 10:51:41;;;;;;;8.7;3.7;;;;;;;;;;;;;
2022/01/01 10:54:10;;;;;;;6.9;3.1;;;;;;;;;;;;;
2022/01/01 10:56:31;;;;;;;8.7;2.1;;;;;;;;;;;;;
2022/01/01 10:58:56;;;;;;;1.9;1.6;;;;;;;;;;;;;
2022/01/01 11:01:21;;;;;;;2.3;1.9;;;;;;;;;;;;;
2022/01/01 11:03:47;;;;;;;2.1;1.3;;;;;;;;;;;;;
2022/01/01 11:06:12;;;;;;;2.4;1.5;;;;;;;;;;;;;
2022/01/01 11:08:37;;;;;;;3.1;1.6;;;;;;;;;;;;;
2022/01/01 11:11:03;;;;;;;2.9;1.9;;;;;;;;;;;;;
2022/01/01 11:13:28;;;;;;;2.9;1.9;;;;;;;;;;;;;
2022/01/01 11:15:55;;;;;;;3;1.9;;;;;;;;;;;;;
2022/01/01 11:18:22;;;;;;;3;2.3;;;;;;;;;;;;;
2022/01/01 11:20:46;;;;;;;3.1;2.1;;;;;;;;;;;;;
2022/01/01 11:23:11;;;;;;;3.9;2.3;;;;;;;;;;;;;
2022/01/01 11:25:36;;;;;;;3.1;2;;;;;;;;;;;;;
2022/01/01 11:28:03;;;;;;;3.7;2.3;;;;;;;;;;;;;
2022/01/01 11:30:28;;;;;;;3.4;2.4;;;;;;;;;;;;;
2022/01/01 11:32:53;;;;;;;3.2;2.3;;;;;;;;;;;;;
2022/01/01 11:35:18;;;;;;;3;2.1;;;;;;;;;;;;;
2022/01/01 11:37:43;;;;;;;4.3;2.5;;;;;;;;;;;;;
2022/01/01 11:40:09;;;;;;;4.5;2.7;;;;;;;;;;;;;
2022/01/01 11:42:34;;;;;;;6.4;3.8;;;;;;;;;;;;;
2022/01/01 11:45:00;;;;;;;6;3.6;;;;;;;;;;;;;
2022/01/01 11:47:25;;;;;;;7.8;3.9;;;;;;;;;;;;;
2022/01/01 11:49:50;;;;;;;6.6;3.8;;;;;;;;;;;;;
2022/01/01 11:52:15;;;;;;;7.8;4.5;;;;;;;;;;;;;
2022/01/01 11:54:42;;;;;;;6.2;4.1;;;;;;;;;;;;;
2022/01/01 11:57:05;;;;;;;5.3;2.5;;;;;;;;;;;;;
2022/01/01 11:59:30;;;;;;;8.6;3.8;;;;;;;;;;;;;
2022/01/01 12:01:56;;;;;;;6;3.1;;;;;;;;;;;;;
2022/01/01 12:04:20;;;;;;;4.1;3;;;;;;;;;;;;;
2022/01/01 12:06:45;;;;;;;3.5;2.9;;;;;;;;;;;;;
2022/01/01 12:09:11;;;;;;;4.6;3.1;;;;;;;;;;;;;
2022/01/01 12:11:36;;;;;;;4.6;3.5;;;;;;;;;;;;;
2022/01/01 12:14:01;;;;;;;3.7;2.8;;;;;;;;;;;;;
2022/01/01 12:16:29;;;;;;;6.5;3.2;;;;;;;;;;;;;
2022/01/01 12:18:59;;;;;;;4.7;2.7;;;;;;;;;;;;;
2022/01/01 12:21:27;;;;;;;3.3;1.8;;;;;;;;;;;;;
2022/01/01 12:23:54;;;;;;;3.5;1.9;;;;;;;;;;;;;
2022/01/01 12:26:14;;;;;;;3.9;1.9;;;;;;;;;;;;;
2022/01/01 12:28:44;;;;;;;9.1;7.7;;;;;;;;;;;;;
2022/01/01 12:31:35;;;;;;;3.7;1.8;;;;;;;;;;;;;
2022/01/01 12:35:16;;;;;;;5.3;1.8;;;;;;;;;;;;;
2022/01/01 12:37:04;;;;;;;6.6;2.1;;;;;;;;;;;;;
2022/01/01 12:41:23;;;;;;;10.4;4.8;;;;;;;;;;;;;
2022/01/01 12:43:27;;;;;;;3.2;2.2;;;;;;;;;;;;;
2022/01/01 12:46:28;;;;;;;4.8;1.4;;;;;;;;;;;;;
2022/01/01 12:48:30;;;;;;;4.8;3.3;;;;;;;;;;;;;
2022/01/01 17:13:18;;;;;;;8.6;3.8;;;;;;;6.02;78.56836;946.9036;;;;
2022/01/01 17:17:44;;;;;;;30.2;20.4;;;;;;;5.97;78.11816;946.8259;;;;
2022/01/01 17:20:08;;;;;;;31.9;21.9;;;;;;;5.76;79.26758;946.8392;;;;
2022/01/01 17:22:33;;;;;;;36.8;24;;;;;;;5.55;80.31055;946.7955;;;;
2022/01/01 17:25:02;;;;;;;38.1;25.2;;;;;;;5.31;81.60742;946.803;;;;
2022/01/01 17:27:26;;;;;;;38.2;23.9;;;;;;;5.25;82.16113;946.7952;;;;
2022/01/01 17:29:53;;;;;;;35.1;22.7;;;;;;;5.16;82.71875;946.6802;;;;
2022/01/01 17:32:18;;;;;;;35;22.9;;;;;;;5.08;82.90527;946.8073;;;;
2022/01/01 17:35:14;;;;;;;34.1;19.3;;;;;;;5;83.5459;946.7939;;;;
2022/01/01 17:37:17;;;;;;;30.2;18.3;;;;;;;5.16;82.87598;946.6931;;;;
2022/01/01 17:39:58;;;;;;;87.7;53.8;;;;;;;4.98;83.69824;946.7899;;;;
2022/01/01 17:42:08;;;;;;;24.6;15.2;;;;;;;4.93;84.27344;946.6992;;;;
2022/01/01 17:44:33;;;;;;;20.9;12.5;;;;;;;4.97;83.94629;946.8125;;;;
2022/01/01 17:47:05;;;;;;;39.2;28.9;;;;;;;4.87;84.43164;946.8087;;;;
2022/01/01 17:49:39;;;;;;;24.3;15.7;;;;;;;4.8;84.6875;946.8503;;;;
2022/01/01 17:52:04;;;;;;;27;17.3;;;;;;;4.76;84.79297;946.8951;;;;
2022/01/01 17:54:23;;;;;;;37.7;24.7;;;;;;;4.67;85.14746;946.8557;;;;
2022/01/01 17:56:52;;;;;;;43;26.5;;;;;;;4.66;85.25781;946.8448;;;;
2022/01/01 17:59:17;;;;;;;32.3;19.5;;;;;;;4.8;84.51855;946.9324;;;;
2022/01/01 18:01:43;;;;;;;41.1;24.4;;;;;;;4.69;84.65527;946.8809;;;;
2022/01/01 18:04:08;;;;;;;44.9;27.5;;;;;;;4.65;84.58984;946.909;;;;
2022/01/01 18:06:33;;;;;;;40.7;26.6;;;;;;;4.45;84.47168;946.947;;;;
2022/01/01 18:08:59;;;;;;;24.8;15.8;;;;;;;4.48;84.5459;946.9302;;;;
2022/01/01 18:11:28;;;;;;;23.8;15.1;;;;;;;4.53;84.30762;946.9403;;;;
2022/01/01 18:13:56;;;;;;;30.9;20.4;;;;;;;4.62;83.70605;946.9509;;;;
2022/01/01 18:16:25;;;;;;;24.9;17.1;;;;;;;4.6;83.56738;946.9522;;;;
2022/01/01 18:18:50;;;;;;;28.7;19.7;;;;;;;4.55;83.77246;946.9863;;;;
2022/01/01 18:21:15;;;;;;;33.9;22.3;;;;;;;;;;;;;
2022/01/01 18:23:40;;;;;;;28.6;18.8;;;;;;;;;;;;;
2022/01/01 18:26:05;;;;;;;25.3;16.5;;;;;;;;;;;;;
2022/01/01 18:28:32;;;;;;;18.2;12.2;;;;;;;;;;;;;
2022/01/01 18:30:56;;;;;;;18.9;12.1;;;;;;;;;;;;;
2022/01/01 18:33:22;;;;;;;21.7;12.4;;;;;;;;;;;;;
2022/01/01 18:35:48;;;;;;;22.1;14.3;;;;;;;;;;;;;
2022/01/01 18:38:13;;;;;;;23.9;14.9;;;;;;;;;;;;;
2022/01/01 18:40:38;;;;;;;24.5;15.1;;;;;;;;;;;;;
2022/01/01 18:43:04;;;;;;;20.4;13.6;;;;;;;;;;;;;
2022/01/01 18:45:29;;;;;;;18.5;12.6;;;;;;;;;;;;;
2022/01/01 18:47:55;;;;;;;21.4;14.8;;;;;;;;;;;;;
2022/01/01 18:50:20;;;;;;;21.9;14.9;;;;;;;;;;;;;
2022/01/01 18:52:46;;;;;;;16.2;11.4;;;;;;;;;;;;;
2022/01/01 18:55:12;;;;;;;18.8;12.7;;;;;;;;;;;;;
2022/01/01 18:57:36;;;;;;;17;12.1;;;;;;;;;;;;;
2022/01/01 19:00:01;;;;;;;15.7;9.1;;;;;;;;;;;;;
2022/01/01 19:02:26;;;;;;;15.3;9.1;;;;;;;;;;;;;
2022/01/01 19:04:51;;;;;;;16.1;8.5;;;;;;;;;;;;;
2022/01/01 19:07:18;;;;;;;19.1;12.4;;;;;;;;;;;;;
2022/01/01 19:09:43;;;;;;;25.3;16.6;;;;;;;;;;;;;
2022/01/01 19:12:09;;;;;;;28.8;18;;;;;;;;;;;;;
2022/01/01 19:14:34;;;;;;;43.4;25.8;;;;;;;;;;;;;
2022/01/01 19:16:59;;;;;;;55.1;28.9;;;;;;;;;;;;;
2022/01/01 19:19:25;;;;;;;50.1;29.3;;;;;;;;;;;;;
2022/01/01 19:21:50;;;;;;;34.2;21.6;;;;;;;;;;;;;
2022/01/01 19:24:15;;;;;;;34.9;23.1;;;;;;;;;;;;;
2022/01/01 19:26:41;;;;;;;32.9;20.4;;;;;;;;;;;;;
2022/01/01 19:29:06;;;;;;;32.5;19.7;;;;;;;;;;;;;
2022/01/01 19:31:31;;;;;;;38.1;22.2;;;;;;;;;;;;;
2022/01/01 19:33:57;;;;;;;33;20.1;;;;;;;;;;;;;
2022/01/01 19:36:22;;;;;;;32;19.8;;;;;;;;;;;;;
2022/01/01 19:38:47;;;;;;;35.8;22.6;;;;;;;;;;;;;
2022/01/01 19:41:13;;;;;;;48.2;27.8;;;;;;;;;;;;;
2022/01/01 19:43:38;;;;;;;36.3;22.8;;;;;;;;;;;;;
2022/01/01 19:46:03;;;;;;;30.3;19.5;;;;;;;;;;;;;
2022/01/01 19:48:29;;;;;;;24.4;14.4;;;;;;;;;;;;;
2022/01/01 19:50:54;;;;;;;25;15.4;;;;;;;;;;;;;
2022/01/01 19:53:20;;;;;;;25.5;16;;;;;;;;;;;;;
2022/01/01 19:55:45;;;;;;;28.2;18.1;;;;;;;;;;;;;
2022/01/01 19:58:11;;;;;;;28.6;18.3;;;;;;;;;;;;;
2022/01/01 20:00:36;;;;;;;33.4;20.9;;;;;;;;;;;;;
2022/01/01 20:03:02;;;;;;;53.1;29.9;;;;;;;;;;;;;
2022/01/01 20:05:27;;;;;;;51.2;29;;;;;;;;;;;;;
2022/01/01 20:07:54;;;;;;;42.6;24.7;;;;;;;;;;;;;
2022/01/01 20:10:20;;;;;;;39.3;23.9;;;;;;;;;;;;;
2022/01/01 20:12:45;;;;;;;21.9;14.1;;;;;;;;;;;;;
2022/01/01 20:15:10;;;;;;;22.7;13.9;;;;;;;;;;;;;
2022/01/01 20:17:38;;;;;;;25;14.2;;;;;;;;;;;;;
2022/01/01 20:20:03;;;;;;;16.3;10.1;;;;;;;;;;;;;
2022/01/01 20:22:28;;;;;;;16.2;9.7;;;;;;;;;;;;;
2022/01/01 20:24:53;;;;;;;21.7;13.4;;;;;;;;;;;;;
2022/01/01 20:27:19;;;;;;;17.2;9.7;;;;;;;;;;;;;
2022/01/01 20:29:44;;;;;;;23.6;15.4;;;;;;;;;;;;;
2022/01/01 20:32:13;;;;;;;24;16.3;;;;;;;;;;;;;
2022/01/01 20:34:35;;;;;;;33.2;20.1;;;;;;;;;;;;;
2022/01/01 20:37:00;;;;;;;33.5;21.1;;;;;;;;;;;;;
2022/01/01 20:39:25;;;;;;;40.3;24.4;;;;;;;;;;;;;
2022/01/01 20:41:51;;;;;;;27.7;18.1;;;;;;;;;;;;;
2022/01/01 20:44:17;;;;;;;28.6;17.9;;;;;;;;;;;;;
2022/01/01 20:46:43;;;;;;;25.9;16.1;;;;;;;;;;;;;
2022/01/01 20:49:08;;;;;;;22.1;14.6;;;;;;;;;;;;;
2022/01/01 20:51:34;;;;;;;23.3;14.5;;;;;;;;;;;;;
2022/01/01 20:53:59;;;;;;;23.8;15.2;;;;;;;;;;;;;
2022/01/01 20:56:24;;;;;;;30.7;18.5;;;;;;;;;;;;;
2022/01/01 20:58:50;;;;;;;24.1;15;;;;;;;;;;;;;
2022/01/01 21:01:16;;;;;;;37.8;21.4;;;;;;;;;;;;;
2022/01/01 21:03:42;;;;;;;49.6;29.5;;;;;;;;;;;;;
2022/01/01 21:06:07;;;;;;;29;18.9;;;;;;;;;;;;;
2022/01/01 21:08:33;;;;;;;28.6;17.9;;;;;;;;;;;;;
2022/01/01 21:10:58;;;;;;;23.4;15.4;;;;;;;;;;;;;
2022/01/01 21:13:23;;;;;;;20;13.3;;;;;;;;;;;;;
2022/01/01 21:15:53;;;;;;;21;13.5;;;;;;;;;;;;;
2022/01/01 21:18:19;;;;;;;23.4;15.1;;;;;;;;;;;;;
2022/01/01 21:20:45;;;;;;;17.1;11.9;;;;;;;;;;;;;
2022/01/01 21:23:10;;;;;;;16.5;10.7;;;;;;;;;;;;;
2022/01/01 21:25:35;;;;;;;10.7;7.9;;;;;;;;;;;;;
2022/01/01 21:28:01;;;;;;;10.9;7.8;;;;;;;;;;;;;
2022/01/01 21:30:26;;;;;;;14.5;9;;;;;;;;;;;;;
2022/01/01 21:32:51;;;;;;;15.1;9.5;;;;;;;;;;;;;
2022/01/01 21:35:16;;;;;;;15.7;9.8;;;;;;;;;;;;;
2022/01/01 21:37:42;;;;;;;16;10.3;;;;;;;;;;;;;
2022/01/01 21:40:07;;;;;;;18.5;12.4;;;;;;;;;;;;;
2022/01/01 21:42:33;;;;;;;19.7;11.8;;;;;;;;;;;;;
2022/01/01 21:44:59;;;;;;;21.1;12;;;;;;;;;;;;;
2022/01/01 21:47:26;;;;;;;18.3;11.3;;;;;;;;;;;;;
2022/01/01 21:49:51;;;;;;;22.8;13.7;;;;;;;;;;;;;
2022/01/01 21:52:17;;;;;;;28;16.5;;;;;;;;;;;;;